< < Back
Terminal Aerodrome Forecast


Current Version              Previous Versions:   1  2  3  4  5  6  7  8  9  

Terminal Aerodrome Forecast

349
FTUS44 KBMX 281720
TAFMGM
TAF
KMGM 281720Z 2818/2918 33009KT P6SM SCT040
     FM281900 36010KT P6SM VCTS BKN050CB
     FM290300 01005KT P6SM BKN250=



Latest METAR

261
SAUS80 KWBC 291400 RRA
MTRMGM
METAR KMGM 291353Z 11004KT 10SM SCT100 BKN120 26/22 A3000 RMK AO2 SLP157
T02560217


USA.gov is the U.S. government's official web portal to all federal, state and local government web resources and services.